Flight Track Log - Related Links

Times and Time Zones

All times are in EST time to prevent confusion due to time zone crossing. See the GJS3617 flight status page for this flight to view local times or setup timezone preferences in your user account.

Time Position Orientation Groundspeed Altitude Reporting Facility
EST Latitude Longitude Course Direction KTS MPH feet Rate Location/Type
Thu 09:18:17 AM 30.0114 -90.2453 North 148 170 900  Level Houston Center
Thu 09:18:42 AM 30.0281 -90.2422 North 147 169 1,400 1,000 Climbing Houston Center
Thu 09:18:59 AM 30.0378 -90.2383 19° North 164 189 1,600 1,899 Climbing Houston Center
Thu 09:20:01 AM 30.0867 -90.2000 34° Northeast 228 262 3,900 2,341 Climbing Houston Center
Thu 09:21:02 AM 30.1331 -90.1406 48° Northeast 240 276 6,400 2,390 Climbing Houston Center
Thu 09:22:04 AM 30.1853 -90.0700 49° Northeast 278 320 8,800 2,129 Climbing Houston Center
Thu 09:23:06 AM 30.2539 -89.9761 50° Northeast 312 359 10,800 1,984 Climbing Houston Center
Thu 09:24:08 AM 30.3206 -89.8881 49° Northeast 349 402 12,900 2,049 Climbing Houston Center
Thu 09:25:09 AM 30.3936 -89.7958 47° Northeast 366 421 15,000 2,000 Climbing Houston Center
Thu 09:26:11 AM 30.4703 -89.7014 47° Northeast 388 447 17,000 1,597 Climbing Houston Center
Thu 09:27:13 AM 30.5447 -89.6075 47° Northeast 391 450 18,300 1,355 Climbing Houston Center
Thu 09:28:15 AM 30.6136 -89.4997 53° Northeast 418 481 19,800 1,463 Climbing Houston Center
Thu 09:29:16 AM 30.6764 -89.3808 58° Northeast 428 493 21,300 1,415 Climbing Houston Center
Thu 09:30:18 AM 30.7400 -89.2592 59° Northeast 436 502 22,700 1,258 Climbing Houston Center
Thu 09:31:20 AM 30.8058 -89.1325 59° Northeast 452 520 23,900 1,161 Climbing Houston Center
Thu 09:32:22 AM 30.8717 -89.0039 59° Northeast 461 531 25,100 1,306 Climbing Houston Center
Thu 09:33:24 AM 30.9533 -88.8464 59° Northeast 471 542 26,600 1,306 Climbing Houston Center
Thu 09:34:26 AM 31.0222 -88.7139 59° Northeast 475 547 27,800 1,073 Climbing Houston Center
Thu 09:35:27 AM 31.0903 -88.5797 59° Northeast 479 551 28,800 976 Climbing Houston Center
Thu 09:36:29 AM 31.1611 -88.4458 58° Northeast 484 557 29,800 919 Climbing Houston Center
Thu 09:37:31 AM 31.2344 -88.3028 59° Northeast 491 565 30,700 871 Climbing Houston Center
Thu 09:38:33 AM 31.3075 -88.1606 59° Northeast 500 575 31,600 823 Climbing Houston Center
Thu 09:39:35 AM 31.3803 -88.0181 59° Northeast 505 581 32,400 774 Climbing Houston Center
Thu 09:40:37 AM 31.4533 -87.8736 59° Northeast 511 588 33,200 780 Climbing Houston Center
Thu 09:41:38 AM 31.5264 -87.7292 59° Northeast 514 592 34,000 780 Climbing Houston Center
Thu 09:42:40 AM 31.6150 -87.5544 59° Northeast 518 596 34,800 727 Climbing Houston Center
Thu 09:43:17 AM 31.6658 -87.4619 57° Northeast 520 598 35,200 495 Climbing Atlanta Center
Thu 09:44:17 AM 31.7233 -87.3447 60° Northeast 520 598 35,600 500 Climbing Atlanta Center
Thu 09:45:17 AM 31.8006 -87.1789 61° Northeast 520 598 36,200 650 Climbing Atlanta Center
Thu 09:46:17 AM 31.8775 -87.0275 59° Northeast 525 604 36,900 700 Climbing Atlanta Center
Thu 09:47:17 AM 31.9497 -86.8806 60° Northeast 520 598 37,600 600 Climbing Atlanta Center
Thu 09:48:17 AM 32.0222 -86.7286 61° Northeast 520 598 38,100 400 Climbing Atlanta Center
Thu 09:49:17 AM 32.1069 -86.5667 58° Northeast 520 598 38,400 300 Climbing Atlanta Center
Thu 09:50:17 AM 32.1828 -86.4169 59° Northeast 526 605 38,700 250 Climbing Atlanta Center
Thu 09:51:17 AM 32.2525 -86.2639 62° Northeast 521 600 38,900 150 Climbing Atlanta Center
Thu 09:52:17 AM 32.3553 -86.1264 48° Northeast 536 617 39,000 50 Climbing Atlanta Center
Thu 09:53:17 AM 32.4492 -85.9858 52° Northeast 541 623 39,000  Level Atlanta Center
Thu 09:54:17 AM 32.5433 -85.8450 52° Northeast 546 628 39,000  Level Atlanta Center
Thu 09:55:17 AM 32.6392 -85.7014 52° Northeast 546 628 39,000  Level Atlanta Center
Thu 09:56:17 AM 32.7328 -85.5600 52° Northeast 546 628 39,000  Level Atlanta Center
Thu 09:57:17 AM 32.8286 -85.4158 52° Northeast 551 634 39,000  Level Atlanta Center
Thu 09:58:17 AM 32.9239 -85.2714 52° Northeast 551 634 39,000  Level Atlanta Center
Thu 09:59:17 AM 33.0172 -85.1339 51° Northeast 551 634 39,000  Level Atlanta Center
Thu 10:00:17 AM 33.1142 -84.9911 51° Northeast 536 617 39,000  Level Atlanta Center
Thu 10:01:17 AM 33.2092 -84.8433 52° Northeast 547 629 39,000  Level Atlanta Center
Thu 10:02:17 AM 33.3000 -84.6975 53° Northeast 551 634 39,000  Level Atlanta Center
Thu 10:03:17 AM 33.3967 -84.5514 52° Northeast 556 640 39,000  Level Atlanta Center
Thu 10:04:17 AM 33.4911 -84.4025 53° Northeast 556 640 39,000  Level Atlanta Center
Thu 10:05:17 AM 33.5875 -84.2558 52° Northeast 556 640 39,000  Level Atlanta Center
Thu 10:06:17 AM 33.6814 -84.1061 53° Northeast 555 639 39,000  Level Atlanta Center
Thu 10:07:17 AM 33.7756 -83.9589 52° Northeast 555 639 39,000  Level Atlanta Center
Thu 10:08:17 AM 33.8692 -83.8086 53° Northeast 550 633 39,000  Level Atlanta Center
Thu 10:09:17 AM 33.9647 -83.6606 52° Northeast 557 641 39,000  Level Atlanta Center
Thu 10:10:17 AM 34.0603 -83.5097 53° Northeast 557 641 39,000  Level Atlanta Center
Thu 10:11:17 AM 34.1556 -83.3586 53° Northeast 557 641 39,000  Level Atlanta Center
Thu 10:12:17 AM 34.2486 -83.2044 54° Northeast 565 650 39,000  Level Atlanta Center
Thu 10:13:17 AM 34.3414 -83.0525 53° Northeast 565 650 39,000  Level Atlanta Center
Thu 10:14:17 AM 34.4258 -82.9181 53° Northeast 559 643 39,000  Level Atlanta Center
Thu 10:15:17 AM 34.5203 -82.7656 53° Northeast 559 643 39,000  Level Atlanta Center
Thu 10:16:17 AM 34.6144 -82.6153 53° Northeast 559 643 39,000  Level Atlanta Center
Thu 10:17:17 AM 34.7086 -82.4647 53° Northeast 559 643 39,000  Level Atlanta Center
Thu 10:18:17 AM 34.8028 -82.3136 53° Northeast 559 643 39,000  Level Atlanta Center
Thu 10:19:17 AM 34.8942 -82.1572 55° Northeast 559 643 39,000  Level Atlanta Center
Thu 10:20:17 AM 34.9858 -82.0056 54° Northeast 559 643 39,000  Level Atlanta Center
Thu 10:21:17 AM 35.0792 -81.8483 54° Northeast 564 649 39,000  Level Atlanta Center
Thu 10:22:17 AM 35.1617 -81.6861 58° Northeast 564 649 39,000  Level Atlanta Center
Thu 10:23:17 AM 35.2481 -81.5236 57° Northeast 564 649 39,000  Level Atlanta Center
Thu 10:24:17 AM 35.3444 -81.3425 57° Northeast 570 656 39,000 -100 Level Atlanta Center
Thu 10:25:17 AM 35.4303 -81.1764 58° Northeast 575 662 38,800 -300 Descending Atlanta Center
Thu 10:26:17 AM 35.5039 -81.0258 59° Northeast 575 662 38,400 -450 Descending Atlanta Center
Thu 10:27:17 AM 35.5875 -80.8669 57° Northeast 565 650 37,900 -500 Descending Atlanta Center
Thu 10:28:17 AM 35.6731 -80.7028 57° Northeast 559 643 37,400 -500 Descending Atlanta Center
Thu 10:29:17 AM 35.7539 -80.5408 58° Northeast 559 643 36,900 -800 Descending Atlanta Center
Thu 10:30:17 AM 35.8508 -80.3572 57° Northeast 565 650 35,800 -1,250 Descending Atlanta Center
Thu 10:31:17 AM 35.9314 -80.1919 59° Northeast 565 650 34,400 -848 Descending Atlanta Center
Thu 10:33:35 AM 36.1244 -79.8403 56° Northeast 551 634 33,000 -424 Descending Washington Center
Thu 10:34:35 AM 36.2181 -79.6728 55° Northeast 582 670 33,000 -149 Level Washington Center
Thu 10:35:36 AM 36.3219 -79.4925 54° Northeast 588 677 32,700 -843 Descending Washington Center
Thu 10:36:36 AM 36.4131 -79.3242 56° Northeast 583 671 31,300 -1,729 Descending Washington Center
Thu 10:37:34 AM 36.4992 -79.1681 56° Northeast 575 662 29,300 -1,900 Descending Washington Center
Thu 10:38:36 AM 36.5736 -79.0422 54° Northeast 545 627 27,500 -1,820 Descending Washington Center
Thu 10:39:36 AM 36.6592 -78.8931 54° Northeast 523 602 25,600 -1,271 Descending Washington Center
Thu 10:40:34 AM 36.7386 -78.7411 57° Northeast 523 602 25,000 -305 Descending Washington Center
Thu 10:41:34 AM 36.8153 -78.5961 57° Northeast 512 589 25,000 -393 Level Washington Center
Thu 10:42:36 AM 36.9122 -78.4728 45° Northeast 507 583 24,200 -1,100 Descending Washington Center
Thu 10:43:34 AM 37.0333 -78.3811 31° Northeast 469 540 22,800 -1,119 Descending Washington Center
Thu 10:44:34 AM 37.1375 -78.2989 32° Northeast 448 516 22,000 -393 Descending Washington Center
Thu 10:45:36 AM 37.2414 -78.2139 33° Northeast 443 510 22,000  Level Washington Center
Thu 10:46:36 AM 37.3389 -78.1414 31° Northeast 443 510 22,000  Level Washington Center
Thu 10:47:34 AM 37.4514 -78.0508 33° Northeast 448 516 22,000  Level Washington Center
Thu 10:48:35 AM 37.5447 -77.9700 34° Northeast 443 510 22,000 -49 Level Washington Center
Thu 10:49:36 AM 37.6572 -77.8792 33° Northeast 443 510 21,900 -1,140 Descending Washington Center
Thu 10:50:36 AM 37.7483 -77.8058 32° Northeast 443 510 19,700 -2,237 Descending Washington Center
Thu 10:51:34 AM 37.8542 -77.7142 34° Northeast 430 495 17,500 -2,269 Descending Washington Center
Thu 10:52:35 AM 37.9367 -77.6481 32° Northeast 403 464 15,200 -2,262 Descending Washington Center
Thu 10:53:36 AM 38.0256 -77.5714 34° Northeast 393 452 12,900 -2,471 Descending Washington Center
Thu 10:54:34 AM 38.1119 -77.5078 30° Northeast 370 426 10,300 -1,475 Descending Washington Center
Thu 10:55:34 AM 38.1881 -77.4436 34° Northeast 347 399 10,000 -149 Descending Washington Center
Thu 10:56:35 AM 38.2678 -77.4217 12° North 317 365 10,000 -443 Level Washington Center
Thu 10:57:36 AM 38.3514 -77.4081 North 295 339 9,100 -1,160 Descending Washington Center
Thu 10:58:34 AM 38.4308 -77.3939 North 295 339 7,700 -1,412 Descending Washington Center
Thu 10:59:35 AM 38.5081 -77.3800 North 290 334 6,300 -1,279 Descending Washington Center
Thu 11:00:36 AM 38.5814 -77.3683 North 279 321 5,100 -1,109 Descending Washington Center
Thu 11:01:34 AM 38.6544 -77.3647 North 268 308 4,100 -559 Descending Washington Center
Thu 11:02:34 AM 38.7294 -77.3614 North 268 308 4,000 -43 Descending Washington Center
Thu 11:03:55 AM 38.8333 -77.3500 North 263 303 4,000 -397 Level Potomac TRACON
Thu 11:04:50 AM 38.9000 -77.3500 360° North 259 298 3,100 -500 Descending Potomac TRACON
Thu 11:05:55 AM 38.9667 -77.3500 360° North 207 238 3,000 -48 Descending Potomac TRACON
Thu 11:06:56 AM 39.0333 -77.3500 360° North 197 227 3,000 -378 Level Potomac TRACON
Thu 11:08:02 AM 39.0833 -77.3500 360° North 189 217 2,200 -526 Descending Potomac TRACON
Thu 11:08:50 AM 39.1167 -77.3667 339° North 203 234 2,000 -100 Descending Potomac TRACON
Thu 11:10:02 AM 39.1000 -77.4333 252° West 171 197 2,000  Level Potomac TRACON
Thu 11:10:57 AM 39.0500 -77.4333 180° South 161 185 2,000 -198 Level Potomac TRACON
Thu 11:12:03 AM 39.0167 -77.4333 180° South 134 154 1,600 -567 Descending Potomac TRACON
Thu 11:13:04 AM 38.9833 -77.4333 180° South 134 154 800 -787 Descending Potomac TRACON
Thu 11:15:00 AM 38.9474 -77.4599 191° South  Level Estimated
Thu 11:22:00 AM 38.9474 -77.4599 191° South  Level Estimated

Login

Don't have an account? Register now (free) for customized features, flight alerts, and more!